Time;durP1;ratioP1;P1;durP2;ratioP2;P2;SDS_P1;SDS_P2;PMS_P1;PMS_P2;Temp;Humidity;BMP_temperature;BMP_pressure;BME280_temperature;BME280_humidity;BME280_pressure;Samples;Min_cycle;Max_cycle;Signal;HPM_P1;HPM_P2
2023/05/04 00:01:56;;;;;;;5.57;2.15;;;;;;;;;;7368894;19;20010;-73
2023/05/04 00:04:22;;;;;;;4.57;2.20;;;;;;;;;;7369130;19;19995;-74
2023/05/04 00:06:47;;;;;;;7.88;2.45;;;;;;;;;;7389263;19;20023;-73
2023/05/04 00:09:14;;;;;;;5.35;2.40;;;;;;;;;;7368047;19;20072;-73
2023/05/04 00:11:39;;;;;;;4.88;2.42;;;;;;;;;;7369833;19;20023;-73
2023/05/04 00:14:05;;;;;;;7.07;2.65;;;;;;;;;;7372016;19;20011;-72
2023/05/04 00:16:30;;;;;;;5.30;2.70;;;;;;;;;;7378753;19;20018;-73
2023/05/04 00:18:56;;;;;;;6.13;2.63;;;;;;;;;;7400413;19;19999;-73
2023/05/04 00:21:21;;;;;;;7.90;2.63;;;;;;;;;;7372614;19;20018;-73
2023/05/04 00:23:46;;;;;;;8.88;2.92;;;;;;;;;;7373857;19;20010;-74
2023/05/04 00:26:12;;;;;;;7.72;2.92;;;;;;;;;;7375664;19;20034;-74
2023/05/04 00:28:37;;;;;;;7.47;2.50;;;;;;;;;;7376095;19;20373;-74
2023/05/04 00:31:02;;;;;;;7.88;2.78;;;;;;;;;;7398034;19;20576;-74
2023/05/04 00:33:28;;;;;;;6.38;2.60;;;;;;;;;;7375091;19;20021;-73
2023/05/04 00:35:53;;;;;;;9.57;2.67;;;;;;;;;;7375881;19;20022;-73
2023/05/04 00:38:18;;;;;;;6.82;2.60;;;;;;;;;;7375658;19;20011;-72
2023/05/04 00:40:44;;;;;;;5.63;2.40;;;;;;;;;;7379599;19;20014;-73
2023/05/04 00:43:09;;;;;;;8.20;2.45;;;;;;;;;;7379467;19;19999;-73
2023/05/04 00:45:35;;;;;;;6.28;3.20;;;;;;;;;;7398380;19;20006;-73
2023/05/04 00:48:00;;;;;;;6.13;2.60;;;;;;;;;;7373979;19;20011;-73
2023/05/04 00:50:27;;;;;;;3.85;2.10;;;;;;;;;;7376007;19;20003;-73
2023/05/04 00:52:56;;;;;;;9.82;2.70;;;;;;;;;;7375119;19;20022;-74
2023/05/04 00:55:21;;;;;;;4.70;2.70;;;;;;;;;;7375352;19;20074;-74
2023/05/04 00:57:49;;;;;;;5.03;2.40;;;;;;;;;;7395215;19;20018;-72
2023/05/04 01:00:15;;;;;;;5.78;2.65;;;;;;;;;;7375843;19;20744;-73
2023/05/04 01:02:40;;;;;;;8.90;2.30;;;;;;;;;;7377219;19;20018;-74
2023/05/04 01:05:07;;;;;;;11.85;2.63;;;;;;;;;;7376866;19;20023;-73
2023/05/04 01:07:57;;;;;;;5.53;2.45;;;;;;;;;;7372368;19;20359;-72
2023/05/04 01:10:29;;;;;;;5.07;2.67;;;;;;;;;;7374096;19;20006;-73
2023/05/04 01:13:08;;;;;;;9.43;2.85;;;;;;;;;;7396567;19;20460;-73
2023/05/04 01:15:34;;;;;;;13.38;2.97;;;;;;;;;;7376720;19;20014;-73
2023/05/04 01:18:00;;;;;;;6.22;2.70;;;;;;;;;;7383729;19;20014;-73
2023/05/04 01:20:25;;;;;;;8.45;3.10;;;;;;;;;;7379135;19;20126;-73
2023/05/04 01:22:50;;;;;;;5.45;2.78;;;;;;;;;;7374433;19;20014;-74
2023/05/04 01:25:17;;;;;;;6.75;2.80;;;;;;;;;;7374561;19;20043;-73
2023/05/04 01:27:50;;;;;;;5.10;2.80;;;;;;;;;;7394224;19;20015;-73
2023/05/04 01:30:22;;;;;;;4.60;2.63;;;;;;;;;;7380922;19;20010;-73
2023/05/04 01:32:48;;;;;;;5.15;2.80;;;;;;;;;;7380355;19;20027;-73
2023/05/04 01:35:15;;;;;;;5.85;2.92;;;;;;;;;;7376058;19;20034;-73
2023/05/04 01:37:40;;;;;;;5.65;2.70;;;;;;;;;;7371517;19;20521;-73
2023/05/04 01:40:06;;;;;;;9.02;2.53;;;;;;;;;;7397495;19;20007;-74
2023/05/04 01:42:32;;;;;;;9.35;2.60;;;;;;;;;;7380511;19;20017;-73
2023/05/04 01:44:57;;;;;;;8.63;3.03;;;;;;;;;;7379147;19;20394;-73
2023/05/04 01:47:23;;;;;;;6.47;3.03;;;;;;;;;;7379382;19;20045;-74
2023/05/04 01:49:48;;;;;;;6.40;2.70;;;;;;;;;;7377773;19;20070;-73
2023/05/04 01:52:13;;;;;;;9.65;2.90;;;;;;;;;;7376493;19;20031;-74
2023/05/04 01:54:38;;;;;;;7.65;3.08;;;;;;;;;;7395755;19;20015;-73
2023/05/04 01:57:04;;;;;;;6.65;2.40;;;;;;;;;;7372976;19;20410;-73
2023/05/04 01:59:29;;;;;;;6.05;2.80;;;;;;;;;;7374199;19;20372;-73
2023/05/04 02:01:54;;;;;;;7.30;2.65;;;;;;;;;;7372563;19;20011;-73
2023/05/04 02:04:20;;;;;;;5.72;2.40;;;;;;;;;;7373014;19;20006;-73
2023/05/04 02:06:46;;;;;;;7.90;2.92;;;;;;;;;;7393068;19;20321;-74
2023/05/04 02:09:12;;;;;;;6.72;2.78;;;;;;;;;;7372619;19;20732;-73
2023/05/04 02:11:37;;;;;;;8.13;3.20;;;;;;;;;;7372214;19;20010;-73
2023/05/04 02:14:03;;;;;;;5.30;2.90;;;;;;;;;;7372466;19;20017;-73
2023/05/04 02:16:28;;;;;;;9.00;3.20;;;;;;;;;;7370552;19;20020;-73
2023/05/04 02:18:53;;;;;;;4.60;2.80;;;;;;;;;;7394568;19;20010;-73
2023/05/04 02:21:19;;;;;;;7.82;2.90;;;;;;;;;;7372191;19;20031;-73
2023/05/04 02:23:44;;;;;;;8.32;2.90;;;;;;;;;;7371428;19;20022;-73
2023/05/04 02:26:10;;;;;;;6.07;2.78;;;;;;;;;;7376331;19;20077;-73
2023/05/04 02:28:35;;;;;;;8.60;2.83;;;;;;;;;;7377182;19;20074;-73
2023/05/04 02:31:01;;;;;;;11.35;2.88;;;;;;;;;;7397390;19;20006;-73
2023/05/04 02:33:26;;;;;;;7.57;3.33;;;;;;;;;;7372892;19;20487;-73
2023/05/04 02:35:51;;;;;;;5.95;2.70;;;;;;;;;;7377164;19;20020;-73
2023/05/04 02:38:17;;;;;;;12.52;2.70;;;;;;;;;;7372974;19;20006;-73
2023/05/04 02:40:42;;;;;;;5.35;2.80;;;;;;;;;;7372046;19;20006;-73
2023/05/04 02:43:07;;;;;;;7.53;2.72;;;;;;;;;;7391565;19;20007;-74
2023/05/04 02:45:34;;;;;;;4.90;2.60;;;;;;;;;;7378114;19;20211;-73
2023/05/04 02:47:59;;;;;;;5.28;2.42;;;;;;;;;;7369917;19;20018;-73
2023/05/04 02:50:24;;;;;;;6.90;3.00;;;;;;;;;;7371831;19;20034;-73
2023/05/04 02:52:50;;;;;;;5.20;3.13;;;;;;;;;;7371694;19;20022;-73
2023/05/04 02:55:15;;;;;;;9.30;2.95;;;;;;;;;;7370439;19;20011;-74
2023/05/04 02:57:41;;;;;;;7.75;2.92;;;;;;;;;;7392120;19;20074;-73
2023/05/04 03:00:07;;;;;;;6.57;2.92;;;;;;;;;;7370252;19;20018;-73
2023/05/04 03:02:32;;;;;;;5.32;2.90;;;;;;;;;;7371275;19;20350;-74
2023/05/04 03:04:58;;;;;;;6.80;3.00;;;;;;;;;;7372094;19;20090;-74
2023/05/04 03:07:23;;;;;;;5.50;2.88;;;;;;;;;;7369090;19;20010;-74
2023/05/04 03:09:48;;;;;;;9.80;2.95;;;;;;;;;;7392055;19;20007;-74
2023/05/04 03:12:14;;;;;;;5.68;3.00;;;;;;;;;;7369813;19;20010;-73
2023/05/04 03:14:39;;;;;;;5.72;3.00;;;;;;;;;;7370299;19;19999;-74
2023/05/04 03:17:05;;;;;;;6.00;2.67;;;;;;;;;;7370299;19;20013;-74
2023/05/04 03:19:30;;;;;;;9.40;3.50;;;;;;;;;;7370706;19;20413;-74
2023/05/04 03:21:55;;;;;;;7.30;3.08;;;;;;;;;;7392752;19;20019;-74
2023/05/04 03:24:21;;;;;;;6.45;3.08;;;;;;;;;;7376106;19;20014;-73
2023/05/04 03:26:46;;;;;;;5.40;2.72;;;;;;;;;;7375746;19;20006;-74
2023/05/04 03:29:12;;;;;;;5.57;3.10;;;;;;;;;;7371942;19;20006;-74
2023/05/04 03:31:37;;;;;;;6.25;2.70;;;;;;;;;;7368316;19;20002;-74
2023/05/04 03:34:02;;;;;;;4.68;3.03;;;;;;;;;;7392041;19;20006;-72
2023/05/04 03:36:28;;;;;;;4.82;2.95;;;;;;;;;;7368388;19;20010;-73
2023/05/04 03:38:54;;;;;;;10.70;3.28;;;;;;;;;;7369157;19;20029;-73
2023/05/04 03:41:19;;;;;;;4.63;3.03;;;;;;;;;;7369386;19;20842;-74
2023/05/04 03:43:45;;;;;;;7.38;3.28;;;;;;;;;;7368952;19;20449;-73
2023/05/04 03:46:10;;;;;;;7.38;3.10;;;;;;;;;;7368913;19;20046;-73
2023/05/04 03:48:36;;;;;;;8.20;3.10;;;;;;;;;;7389477;19;19999;-73
2023/05/04 03:51:01;;;;;;;9.30;3.38;;;;;;;;;;7379092;19;20002;-73
2023/05/04 03:53:27;;;;;;;6.22;3.42;;;;;;;;;;7384052;19;20566;-73
2023/05/04 03:55:52;;;;;;;9.13;3.47;;;;;;;;;;7390744;19;20010;-73
2023/05/04 03:58:17;;;;;;;7.47;3.28;;;;;;;;;;7389102;19;20002;-73
2023/05/04 04:00:43;;;;;;;5.65;3.65;;;;;;;;;;7410875;19;20071;-74
2023/05/04 04:03:08;;;;;;;5.93;3.30;;;;;;;;;;7383250;19;20006;-73
2023/05/04 04:05:33;;;;;;;6.63;3.25;;;;;;;;;;7381847;19;20019;-73
2023/05/04 04:07:59;;;;;;;7.53;3.33;;;;;;;;;;7382766;19;20375;-73
2023/05/04 04:10:25;;;;;;;6.25;3.33;;;;;;;;;;7383465;19;19991;-73
2023/05/04 04:12:50;;;;;;;8.77;3.40;;;;;;;;;;7411268;19;20015;-73
2023/05/04 04:15:15;;;;;;;11.13;3.83;;;;;;;;;;7384269;19;20009;-74
2023/05/04 04:17:41;;;;;;;6.75;3.35;;;;;;;;;;7385636;19;20008;-73
2023/05/04 04:20:07;;;;;;;5.93;3.30;;;;;;;;;;7386488;19;20007;-73
2023/05/04 04:22:34;;;;;;;6.90;3.45;;;;;;;;;;7389108;19;20030;-73
2023/05/04 04:24:59;;;;;;;7.47;3.30;;;;;;;;;;7418939;19;20011;-72
2023/05/04 04:27:24;;;;;;;5.80;3.85;;;;;;;;;;7391203;19;20006;-74
2023/05/04 04:29:50;;;;;;;12.80;3.83;;;;;;;;;;7384921;19;20002;-74
2023/05/04 04:32:15;;;;;;;6.68;3.33;;;;;;;;;;7386557;19;20360;-74
2023/05/04 04:34:40;;;;;;;8.93;3.50;;;;;;;;;;7384084;19;20413;-73
2023/05/04 04:37:06;;;;;;;8.85;3.42;;;;;;;;;;7404408;19;20002;-73
2023/05/04 04:39:31;;;;;;;5.72;3.25;;;;;;;;;;7383838;19;20006;-74
2023/05/04 04:41:57;;;;;;;6.90;3.40;;;;;;;;;;7383805;19;20352;-73
2023/05/04 04:44:22;;;;;;;8.55;3.08;;;;;;;;;;7387296;19;20025;-73
2023/05/04 04:46:48;;;;;;;7.13;3.40;;;;;;;;;;7384227;19;20100;-73
2023/05/04 04:49:16;;;;;;;6.85;3.58;;;;;;;;;;7384053;19;20014;-74
2023/05/04 04:51:42;;;;;;;8.90;3.92;;;;;;;;;;7404706;19;20033;-73
2023/05/04 04:54:07;;;;;;;8.45;3.47;;;;;;;;;;7382477;19;20468;-74
2023/05/04 04:56:32;;;;;;;13.73;3.88;;;;;;;;;;7381165;19;20006;-74
2023/05/04 04:58:58;;;;;;;6.70;3.60;;;;;;;;;;7381757;19;20013;-73
2023/05/04 05:01:25;;;;;;;8.30;3.60;;;;;;;;;;7378047;19;20013;-73
2023/05/04 05:03:50;;;;;;;6.65;3.67;;;;;;;;;;7394933;19;20010;-73
2023/05/04 05:06:16;;;;;;;8.02;3.88;;;;;;;;;;7374686;19;20134;-73
2023/05/04 05:08:42;;;;;;;8.00;3.60;;;;;;;;;;7373501;19;20683;-73
2023/05/04 05:11:08;;;;;;;8.95;4.32;;;;;;;;;;7370094;19;20041;-73
2023/05/04 05:13:34;;;;;;;11.05;3.50;;;;;;;;;;7373858;19;20002;-73
2023/05/04 05:15:59;;;;;;;6.03;3.78;;;;;;;;;;7394424;19;20090;-73
2023/05/04 05:18:25;;;;;;;9.27;4.03;;;;;;;;;;7374947;19;20456;-73
2023/05/04 05:20:51;;;;;;;7.03;3.03;;;;;;;;;;7385785;19;20021;-73
2023/05/04 05:23:16;;;;;;;7.63;3.90;;;;;;;;;;7378453;19;20009;-73
2023/05/04 05:25:43;;;;;;;5.32;3.38;;;;;;;;;;7374869;19;20002;-73
2023/05/04 05:28:08;;;;;;;7.97;3.78;;;;;;;;;;7388439;19;20013;-73
2023/05/04 05:30:34;;;;;;;7.90;3.80;;;;;;;;;;7389638;19;20006;-73
2023/05/04 05:32:59;;;;;;;6.82;4.07;;;;;;;;;;7372806;19;20013;-73
2023/05/04 05:35:25;;;;;;;7.32;3.67;;;;;;;;;;7374707;19;20019;-73
2023/05/04 05:37:50;;;;;;;8.57;4.18;;;;;;;;;;7371181;19;20002;-75
2023/05/04 05:40:16;;;;;;;6.25;3.67;;;;;;;;;;7374018;19;20322;-73
2023/05/04 05:42:41;;;;;;;6.95;3.80;;;;;;;;;;7395427;19;20013;-73
2023/05/04 05:45:09;;;;;;;8.95;3.97;;;;;;;;;;7374503;19;20003;-73
2023/05/04 05:47:35;;;;;;;7.10;3.95;;;;;;;;;;7380999;19;20002;-73
2023/05/04 05:50:01;;;;;;;9.70;3.80;;;;;;;;;;7382967;19;20029;-73
2023/05/04 05:52:26;;;;;;;6.32;3.35;;;;;;;;;;7386768;19;20002;-71
2023/05/04 05:54:51;;;;;;;6.55;3.15;;;;;;;;;;7407793;19;20054;-71
2023/05/04 05:57:17;;;;;;;11.80;3.60;;;;;;;;;;7380079;19;20409;-71
2023/05/04 05:59:43;;;;;;;6.10;2.40;;;;;;;;;;7376961;19;20066;-66
2023/05/04 06:02:08;;;;;;;7.00;3.05;;;;;;;;;;7376137;19;20027;-67
2023/05/04 06:04:34;;;;;;;8.50;3.88;;;;;;;;;;7374884;19;20006;-67
2023/05/04 06:06:59;;;;;;;5.53;3.33;;;;;;;;;;7393290;19;20006;-66
2023/05/04 06:09:24;;;;;;;7.95;3.08;;;;;;;;;;7373044;19;20006;-67
2023/05/04 06:11:50;;;;;;;8.07;3.50;;;;;;;;;;7371031;19;20010;-66
2023/05/04 06:14:15;;;;;;;8.60;3.00;;;;;;;;;;7371588;19;20810;-66
2023/05/04 06:16:40;;;;;;;8.02;3.55;;;;;;;;;;7372340;19;20022;-67
2023/05/04 06:19:06;;;;;;;6.78;3.20;;;;;;;;;;7395283;19;20055;-74
2023/05/04 06:21:31;;;;;;;5.30;2.97;;;;;;;;;;7371863;19;20017;-73
2023/05/04 06:23:56;;;;;;;10.35;3.72;;;;;;;;;;7372244;19;20052;-74
2023/05/04 06:26:22;;;;;;;4.95;2.83;;;;;;;;;;7371452;19;20010;-73
2023/05/04 06:28:47;;;;;;;6.30;2.80;;;;;;;;;;7372757;19;20017;-73
2023/05/04 06:31:13;;;;;;;6.40;3.17;;;;;;;;;;7371860;19;20022;-73
2023/05/04 06:33:38;;;;;;;8.55;3.42;;;;;;;;;;7393647;19;20219;-73
2023/05/04 06:36:04;;;;;;;7.43;3.50;;;;;;;;;;7371267;19;20007;-73
2023/05/04 06:38:29;;;;;;;5.03;2.70;;;;;;;;;;7370945;19;20014;-72
2023/05/04 06:40:55;;;;;;;8.95;4.00;;;;;;;;;;7371685;19;20032;-74
2023/05/04 06:43:20;;;;;;;6.78;3.63;;;;;;;;;;7372050;19;20010;-74
2023/05/04 06:45:48;;;;;;;9.07;3.92;;;;;;;;;;7392466;19;20002;-74
2023/05/04 06:48:14;;;;;;;10.50;3.67;;;;;;;;;;7369839;19;20086;-74
2023/05/04 06:50:39;;;;;;;8.80;3.28;;;;;;;;;;7371507;19;20007;-72
2023/05/04 06:53:07;;;;;;;7.57;3.30;;;;;;;;;;7370237;19;20439;-72
2023/05/04 06:55:33;;;;;;;9.70;3.50;;;;;;;;;;7373109;19;20035;-68
2023/05/04 06:57:58;;;;;;;6.13;3.58;;;;;;;;;;7398024;19;20006;-76
2023/05/04 07:00:24;;;;;;;7.28;3.78;;;;;;;;;;7377679;19;20355;-76
2023/05/04 07:02:51;;;;;;;5.50;3.38;;;;;;;;;;7374270;19;20009;-76
2023/05/04 07:05:17;;;;;;;7.15;3.55;;;;;;;;;;7371153;19;20006;-76
2023/05/04 07:07:42;;;;;;;9.60;3.90;;;;;;;;;;7366580;19;20602;-75
2023/05/04 07:10:08;;;;;;;12.38;4.00;;;;;;;;;;7389331;19;20006;-75
2023/05/04 07:12:33;;;;;;;10.23;3.60;;;;;;;;;;7376985;19;20001;-75
2023/05/04 07:14:58;;;;;;;5.65;3.00;;;;;;;;;;7371128;19;20400;-75
2023/05/04 07:17:24;;;;;;;8.70;3.25;;;;;;;;;;7368322;19;19999;-76
2023/05/04 07:19:53;;;;;;;8.13;3.55;;;;;;;;;;7371122;19;20507;-75
2023/05/04 07:22:19;;;;;;;8.13;3.40;;;;;;;;;;7371837;19;20469;-76
2023/05/04 07:24:45;;;;;;;6.57;3.65;;;;;;;;;;7390117;19;20027;-76
2023/05/04 07:27:11;;;;;;;6.97;3.50;;;;;;;;;;7367830;19;20947;-75
2023/05/04 07:29:36;;;;;;;8.13;4.07;;;;;;;;;;7370392;19;20109;-75
2023/05/04 07:32:02;;;;;;;6.13;3.20;;;;;;;;;;7371682;19;20006;-76
2023/05/04 07:34:28;;;;;;;6.20;3.35;;;;;;;;;;7370932;19;20019;-75
2023/05/04 07:36:53;;;;;;;7.70;3.50;;;;;;;;;;7391722;19;20010;-75
2023/05/04 07:39:18;;;;;;;8.50;3.42;;;;;;;;;;7367891;19;20310;-75
2023/05/04 07:41:44;;;;;;;6.85;3.67;;;;;;;;;;7370701;19;20373;-75
2023/05/04 07:44:10;;;;;;;7.47;3.30;;;;;;;;;;7369577;19;20414;-75
2023/05/04 07:46:37;;;;;;;11.30;4.13;;;;;;;;;;7370604;19;20314;-75
2023/05/04 07:49:02;;;;;;;8.27;3.65;;;;;;;;;;7396612;19;20002;-75
2023/05/04 07:51:27;;;;;;;8.55;3.97;;;;;;;;;;7374530;19;20014;-75
2023/05/04 07:53:53;;;;;;;8.55;3.40;;;;;;;;;;7377787;19;20014;-75
2023/05/04 07:56:18;;;;;;;5.22;3.10;;;;;;;;;;7375449;19;20006;-75
2023/05/04 07:58:43;;;;;;;8.02;3.50;;;;;;;;;;7379109;19;20010;-75
2023/05/04 08:01:09;;;;;;;7.50;3.33;;;;;;;;;;7383111;19;20027;-75
2023/05/04 08:03:35;;;;;;;9.40;3.40;;;;;;;;;;7396289;19;20003;-75
2023/05/04 08:06:00;;;;;;;8.05;3.35;;;;;;;;;;7392919;19;20054;-76
2023/05/04 08:08:26;;;;;;;5.40;3.13;;;;;;;;;;7373532;19;20007;-75
2023/05/04 08:10:52;;;;;;;7.72;3.33;;;;;;;;;;7372096;19;20446;-76
2023/05/04 08:13:17;;;;;;;9.98;3.80;;;;;;;;;;7369851;19;20001;-75
2023/05/04 08:15:43;;;;;;;8.63;3.65;;;;;;;;;;7389929;19;19998;-74
2023/05/04 08:18:09;;;;;;;7.20;3.42;;;;;;;;;;7367523;19;20010;-75
2023/05/04 08:20:34;;;;;;;6.90;3.28;;;;;;;;;;7370545;19;20698;-74
2023/05/04 08:23:02;;;;;;;8.13;3.50;;;;;;;;;;7369212;19;20018;-75
2023/05/04 08:25:28;;;;;;;10.10;3.70;;;;;;;;;;7368581;19;20484;-74
2023/05/04 08:27:53;;;;;;;5.78;3.30;;;;;;;;;;7388573;19;20058;-74
2023/05/04 08:30:22;;;;;;;9.65;3.50;;;;;;;;;;7369209;19;20016;-75
2023/05/04 08:32:50;;;;;;;7.50;3.45;;;;;;;;;;7369988;19;20014;-75
2023/05/04 08:35:15;;;;;;;6.30;3.30;;;;;;;;;;7369304;19;20028;-75
2023/05/04 08:37:40;;;;;;;6.38;3.00;;;;;;;;;;7371400;19;20006;-75
2023/05/04 08:40:07;;;;;;;8.55;3.67;;;;;;;;;;7401062;19;20006;-75
2023/05/04 08:42:33;;;;;;;5.88;3.67;;;;;;;;;;7392696;19;20014;-75
2023/05/04 08:44:59;;;;;;;6.53;3.20;;;;;;;;;;7397736;19;20011;-75
2023/05/04 08:47:27;;;;;;;6.03;3.30;;;;;;;;;;7392341;19;20342;-74
2023/05/04 08:49:53;;;;;;;8.63;3.60;;;;;;;;;;7373935;19;20472;-75
2023/05/04 08:52:23;;;;;;;10.63;3.65;;;;;;;;;;7377836;19;20031;-75
2023/05/04 08:54:53;;;;;;;9.75;3.60;;;;;;;;;;7409290;19;20005;-74
2023/05/04 08:57:19;;;;;;;7.37;3.27;;;;;;;;;;7374829;19;20082;-75
2023/05/04 08:59:49;;;;;;;5.72;3.05;;;;;;;;;;7377700;19;20002;-75
2023/05/04 09:02:18;;;;;;;9.43;3.42;;;;;;;;;;7376523;19;20035;-74
2023/05/04 09:04:43;;;;;;;5.63;3.50;;;;;;;;;;7390668;19;20017;-74
2023/05/04 09:07:09;;;;;;;11.48;3.78;;;;;;;;;;7403113;19;20066;-73
2023/05/04 09:09:34;;;;;;;5.50;3.45;;;;;;;;;;7403769;19;20010;-74
2023/05/04 09:12:00;;;;;;;8.57;3.50;;;;;;;;;;7391416;19;20006;-74
2023/05/04 09:14:31;;;;;;;7.57;3.88;;;;;;;;;;7390593;19;20130;-75
2023/05/04 09:16:58;;;;;;;11.95;3.88;;;;;;;;;;7383397;19;20032;-73
2023/05/04 09:19:25;;;;;;;8.50;3.88;;;;;;;;;;7388829;19;20326;-74
2023/05/04 09:21:53;;;;;;;7.80;3.55;;;;;;;;;;7405221;19;20002;-74
2023/05/04 09:24:28;;;;;;;7.28;3.53;;;;;;;;;;7382485;19;20031;-74
2023/05/04 09:26:54;;;;;;;8.05;3.45;;;;;;;;;;7380730;19;20018;-75
2023/05/04 09:29:21;;;;;;;10.13;4.55;;;;;;;;;;7379905;19;20011;-74
2023/05/04 09:31:49;;;;;;;7.32;3.88;;;;;;;;;;7379668;19;20011;-74
2023/05/04 09:34:15;;;;;;;8.10;4.13;;;;;;;;;;7379126;19;20005;-73
2023/05/04 09:36:41;;;;;;;8.95;4.30;;;;;;;;;;7400054;19;20035;-73
2023/05/04 09:39:13;;;;;;;9.15;3.85;;;;;;;;;;7379023;19;20010;-74
2023/05/04 09:41:39;;;;;;;9.18;3.75;;;;;;;;;;7378601;19;20010;-74
2023/05/04 09:44:16;;;;;;;10.25;4.25;;;;;;;;;;7374492;19;20009;-73
2023/05/04 09:46:41;;;;;;;7.15;3.70;;;;;;;;;;7376425;19;20010;-74
2023/05/04 09:49:06;;;;;;;8.45;4.57;;;;;;;;;;7376834;19;20023;-75
2023/05/04 09:51:32;;;;;;;6.97;4.50;;;;;;;;;;7396313;19;20497;-74
2023/05/04 09:54:01;;;;;;;6.75;4.32;;;;;;;;;;7381517;19;20003;-74
2023/05/04 09:56:45;;;;;;;6.32;3.75;;;;;;;;;;7391438;19;20003;-73
2023/05/04 09:59:11;;;;;;;7.80;3.88;;;;;;;;;;7392100;19;20007;-74
2023/05/04 10:01:37;;;;;;;5.47;3.67;;;;;;;;;;7384201;19;20043;-73
2023/05/04 10:04:03;;;;;;;6.82;3.85;;;;;;;;;;7377275;19;20704;-73
2023/05/04 10:06:31;;;;;;;8.90;4.00;;;;;;;;;;7393960;19;20462;-73
2023/05/04 10:08:58;;;;;;;10.77;4.68;;;;;;;;;;7372666;19;21347;-73
2023/05/04 10:11:25;;;;;;;7.18;3.72;;;;;;;;;;7373455;19;20009;-73
2023/05/04 10:13:53;;;;;;;7.13;3.60;;;;;;;;;;7374128;19;20013;-74
2023/05/04 10:16:24;;;;;;;8.05;3.70;;;;;;;;;;7373567;19;20111;-73
2023/05/04 10:19:15;;;;;;;8.20;3.50;;;;;;;;;;7376479;19;20021;-73
2023/05/04 10:22:04;;;;;;;7.97;3.45;;;;;;;;;;7377032;19;20003;-73
2023/05/04 10:25:03;;;;;;;5.97;3.70;;;;;;;;;;7399460;19;20014;-74
2023/05/04 10:27:48;;;;;;;5.68;3.42;;;;;;;;;;7378508;19;20041;-73
2023/05/04 10:30:15;;;;;;;19.00;4.20;;;;;;;;;;7373458;19;20531;-73
2023/05/04 10:32:41;;;;;;;7.07;3.80;;;;;;;;;;7371798;19;20607;-74
2023/05/04 10:35:07;;;;;;;8.23;4.45;;;;;;;;;;7373213;19;20011;-74
2023/05/04 10:37:33;;;;;;;7.25;4.30;;;;;;;;;;7372791;19;20010;-76
2023/05/04 10:39:58;;;;;;;10.48;3.47;;;;;;;;;;7373510;19;20035;-75
2023/05/04 10:42:24;;;;;;;6.28;3.95;;;;;;;;;;7392720;19;20003;-74
2023/05/04 10:44:55;;;;;;;6.65;3.40;;;;;;;;;;7372642;19;20043;-75
2023/05/04 10:47:29;;;;;;;10.02;4.25;;;;;;;;;;7373024;19;20382;-75
2023/05/04 10:50:08;;;;;;;8.00;3.83;;;;;;;;;;7377876;19;20010;-76
2023/05/04 10:52:47;;;;;;;7.70;4.18;;;;;;;;;;7375626;19;20002;-76
2023/05/04 10:55:13;;;;;;;6.13;3.92;;;;;;;;;;7375617;19;20014;-76
2023/05/04 10:57:53;;;;;;;7.10;3.83;;;;;;;;;;7384381;19;20018;-75
2023/05/04 11:00:19;;;;;;;;;;;;;;;;;;7392321;19;20003;-75
2023/05/04 11:02:48;;;;;;;6.88;3.70;;;;;;;;;;7369549;19;19918;-76
2023/05/04 11:05:18;;;;;;;6.80;4.13;;;;;;;;;;7368370;19;20002;-75
2023/05/04 11:07:45;;;;;;;6.68;4.15;;;;;;;;;;7368013;19;20403;-75
2023/05/04 11:10:22;;;;;;;7.95;4.43;;;;;;;;;;7368286;19;20051;-75
2023/05/04 11:12:47;;;;;;;7.00;3.90;;;;;;;;;;7369010;19;20007;-76
2023/05/04 11:15:13;;;;;;;8.15;4.32;;;;;;;;;;7392784;19;20374;-76
2023/05/04 11:17:51;;;;;;;7.53;4.07;;;;;;;;;;7372257;19;20560;-76
2023/05/04 11:20:23;;;;;;;7.88;3.65;;;;;;;;;;7374596;19;20421;-75
2023/05/04 11:22:49;;;;;;;9.35;4.13;;;;;;;;;;7377300;19;20019;-76
2023/05/04 11:25:15;;;;;;;8.95;5.38;;;;;;;;;;7374809;19;20002;-75
2023/05/04 11:27:42;;;;;;;7.93;3.78;;;;;;;;;;7371251;19;20006;-75
2023/05/04 11:30:08;;;;;;;6.05;3.67;;;;;;;;;;7394876;19;20006;-76
2023/05/04 11:32:48;;;;;;;10.40;4.38;;;;;;;;;;7375538;19;20647;-75
2023/05/04 11:35:14;;;;;;;;;;;;;;;;;;7374336;19;20032;-75
2023/05/04 11:37:41;;;;;;;5.65;3.85;;;;;;;;;;7374715;19;20291;-75
2023/05/04 11:40:12;;;;;;;6.72;3.90;;;;;;;;;;7374602;19;20010;-75
2023/05/04 11:42:39;;;;;;;9.98;3.90;;;;;;;;;;7375832;19;20019;-75
2023/05/04 11:45:18;;;;;;;5.57;3.60;;;;;;;;;;7403160;19;20023;-75
2023/05/04 11:47:45;;;;;;;7.67;4.10;;;;;;;;;;7378254;19;20038;-74
2023/05/04 11:50:13;;;;;;;6.25;3.20;;;;;;;;;;7373754;19;20034;-73
2023/05/04 11:52:40;;;;;;;7.78;3.75;;;;;;;;;;7375139;19;20010;-74
2023/05/04 11:55:28;;;;;;;7.25;3.55;;;;;;;;;;7373537;19;20007;-74
2023/05/04 11:58:05;;;;;;;6.93;3.60;;;;;;;;;;7372318;19;20027;-74
2023/05/04 12:00:44;;;;;;;7.07;3.30;;;;;;;;;;7405997;19;20002;-72
2023/05/04 12:03:22;;;;;;;5.70;3.20;;;;;;;;;;7392341;19;20483;-68
2023/05/04 12:05:53;;;;;;;7.80;3.50;;;;;;;;;;7382453;19;20492;-68
2023/05/04 12:08:25;;;;;;;6.13;2.90;;;;;;;;;;7375163;19;20155;-67
2023/05/04 12:11:13;;;;;;;5.43;3.17;;;;;;;;;;7374326;19;20496;-68
2023/05/04 12:13:39;;;;;;;6.00;3.10;;;;;;;;;;7372406;19;20025;-74
2023/05/04 12:16:14;;;;;;;6.30;3.42;;;;;;;;;;7374769;19;20018;-74
2023/05/04 12:18:40;;;;;;;7.43;3.25;;;;;;;;;;7375771;19;20007;-74
2023/05/04 12:21:20;;;;;;;8.75;3.90;;;;;;;;;;7395415;19;20011;-74
2023/05/04 12:23:46;;;;;;;5.90;3.10;;;;;;;;;;7373375;19;20015;-73
2023/05/04 12:26:13;;;;;;;6.25;3.70;;;;;;;;;;7374713;19;20267;-74
2023/05/04 12:28:40;;;;;;;8.43;3.22;;;;;;;;;;7374185;19;20118;-74
2023/05/04 12:31:06;;;;;;;5.57;3.08;;;;;;;;;;7375951;19;20478;-74
2023/05/04 12:33:32;;;;;;;8.70;3.13;;;;;;;;;;7396320;19;20023;-74
2023/05/04 12:36:01;;;;;;;6.72;3.55;;;;;;;;;;7373280;19;20021;-73
2023/05/04 12:38:27;;;;;;;6.25;3.03;;;;;;;;;;7375380;19;20035;-73
2023/05/04 12:40:54;;;;;;;5.40;3.22;;;;;;;;;;7382574;19;20007;-74
2023/05/04 12:43:22;;;;;;;5.88;3.15;;;;;;;;;;7379231;19;20014;-74
2023/05/04 12:45:50;;;;;;;5.85;2.85;;;;;;;;;;7377645;19;20109;-74
2023/05/04 12:48:16;;;;;;;4.72;2.60;;;;;;;;;;7393893;19;20007;-73
2023/05/04 12:50:46;;;;;;;4.57;2.63;;;;;;;;;;7375958;19;20002;-73
2023/05/04 12:53:12;;;;;;;5.07;3.13;;;;;;;;;;7374705;19;20074;-73
2023/05/04 12:55:37;;;;;;;4.10;2.67;;;;;;;;;;7373974;19;20006;-74
2023/05/04 12:58:03;;;;;;;4.28;2.80;;;;;;;;;;7372014;19;20397;-74
2023/05/04 13:00:32;;;;;;;5.70;2.70;;;;;;;;;;7396657;19;20461;-73
2023/05/04 13:02:58;;;;;;;7.85;3.30;;;;;;;;;;7365765;19;20014;-74
2023/05/04 13:05:24;;;;;;;6.60;3.22;;;;;;;;;;7370899;19;20444;-75
2023/05/04 13:07:50;;;;;;;4.75;2.70;;;;;;;;;;7371876;19;20014;-74
2023/05/04 13:10:15;;;;;;;5.45;2.83;;;;;;;;;;7373254;19;20086;-74
2023/05/04 13:12:42;;;;;;;5.63;3.15;;;;;;;;;;7380623;19;20014;-73
2023/05/04 13:15:08;;;;;;;5.95;3.28;;;;;;;;;;7394766;19;20006;-75
2023/05/04 13:17:34;;;;;;;5.53;3.30;;;;;;;;;;7369642;19;20025;-74
2023/05/04 13:20:00;;;;;;;6.05;2.90;;;;;;;;;;7373978;19;20006;-75
2023/05/04 13:22:27;;;;;;;5.60;3.10;;;;;;;;;;7372435;19;20042;-73
2023/05/04 13:24:52;;;;;;;6.90;3.10;;;;;;;;;;7371116;19;20007;-75
2023/05/04 13:27:18;;;;;;;5.22;3.28;;;;;;;;;;7390861;19;20002;-72
2023/05/04 13:29:43;;;;;;;7.13;3.40;;;;;;;;;;7372841;19;20490;-73
2023/05/04 13:32:09;;;;;;;5.65;2.90;;;;;;;;;;7365359;19;20010;-73
2023/05/04 13:34:34;;;;;;;5.72;3.40;;;;;;;;;;7369416;19;20039;-73
2023/05/04 13:37:00;;;;;;;6.40;3.67;;;;;;;;;;7371054;19;20039;-73
2023/05/04 13:39:25;;;;;;;4.90;3.03;;;;;;;;;;7393446;19;20069;-73
2023/05/04 13:41:51;;;;;;;5.28;3.00;;;;;;;;;;7374823;19;20006;-74
2023/05/04 13:44:16;;;;;;;8.88;3.22;;;;;;;;;;7383226;19;20009;-76
2023/05/04 13:46:41;;;;;;;5.20;3.30;;;;;;;;;;7382637;19;20010;-76
2023/05/04 13:49:07;;;;;;;6.47;3.47;;;;;;;;;;7380127;19;20007;-76
2023/05/04 13:51:33;;;;;;;4.80;2.85;;;;;;;;;;7397564;19;20013;-75
2023/05/04 13:53:58;;;;;;;5.45;3.20;;;;;;;;;;7372363;19;20006;-75
2023/05/04 13:56:24;;;;;;;7.28;3.10;;;;;;;;;;7368537;19;20018;-73
2023/05/04 13:58:50;;;;;;;6.28;3.20;;;;;;;;;;7371354;19;20445;-74
2023/05/04 14:01:16;;;;;;;6.53;3.10;;;;;;;;;;7371078;19;20098;-73
2023/05/04 14:03:41;;;;;;;5.38;2.95;;;;;;;;;;7374168;19;20020;-72
2023/05/04 14:06:06;;;;;;;5.28;2.60;;;;;;;;;;7396923;19;20074;-72
2023/05/04 14:08:32;;;;;;;5.80;2.83;;;;;;;;;;7374767;19;20002;-73
2023/05/04 14:10:57;;;;;;;4.60;2.50;;;;;;;;;;7376131;19;20006;-73
2023/05/04 14:13:22;;;;;;;4.32;2.50;;;;;;;;;;7376548;19;20362;-73
2023/05/04 14:15:48;;;;;;;5.68;2.60;;;;;;;;;;7366780;19;20348;-72
2023/05/04 14:18:13;;;;;;;5.28;2.83;;;;;;;;;;7388271;19;20033;-73
2023/05/04 14:20:39;;;;;;;4.15;2.85;;;;;;;;;;7369737;19;20017;-73
2023/05/04 14:23:04;;;;;;;4.00;2.40;;;;;;;;;;7368354;19;20010;-74
2023/05/04 14:25:30;;;;;;;4.70;2.40;;;;;;;;;;7369196;19;20047;-72
2023/05/04 14:27:55;;;;;;;5.43;2.45;;;;;;;;;;7368551;19;20016;-73
2023/05/04 14:30:20;;;;;;;4.05;2.40;;;;;;;;;;7391510;19;19999;-73
2023/05/04 14:32:46;;;;;;;6.47;2.00;;;;;;;;;;7385013;19;20006;-73
2023/05/04 14:35:11;;;;;;;6.90;2.85;;;;;;;;;;7372819;19;20010;-73
2023/05/04 14:37:38;;;;;;;4.13;2.30;;;;;;;;;;7370575;19;20017;-74
2023/05/04 14:40:05;;;;;;;4.80;2.40;;;;;;;;;;7370027;19;20013;-75
2023/05/04 14:42:31;;;;;;;5.22;2.28;;;;;;;;;;7394923;19;20006;-73